createdAt,value
2022-08-27T00:08:50.435Z,99608.59
2022-08-27T00:18:55.295Z,99609.88
2022-08-27T00:28:57.116Z,99609.38
2022-08-27T00:38:58.923Z,99618.63
2022-08-27T00:49:08.215Z,99641.41
2022-08-27T00:59:12.194Z,99628.63
2022-08-27T01:09:17.437Z,99631.75
2022-08-27T01:19:38.213Z,99649.03
2022-08-27T01:29:44.308Z,99638.25
2022-08-27T01:39:46.200Z,99631.00
2022-08-27T01:49:50.994Z,99637.75
2022-08-27T01:59:53.019Z,99647.78
2022-08-27T02:09:54.753Z,99638.56
2022-08-27T02:19:57.153Z,99636.63
2022-08-27T02:29:58.969Z,99639.66
2022-08-27T02:40:01.827Z,99614.72
2022-08-27T02:50:05.068Z,99616.53
2022-08-27T03:00:12.989Z,99624.97
2022-08-27T03:10:17.239Z,99633.09
2022-08-27T03:20:19.097Z,99641.16
2022-08-27T03:30:23.079Z,99634.66
2022-08-27T03:40:24.862Z,99628.50
2022-08-27T03:50:26.532Z,99633.88
2022-08-27T04:00:28.601Z,99633.41
2022-08-27T04:10:34.760Z,99630.34
2022-08-27T04:20:39.880Z,99643.72
2022-08-27T04:30:47.182Z,99639.03
2022-08-27T04:41:07.576Z,99633.88
2022-08-27T04:51:09.318Z,99645.88
2022-08-27T05:01:20.909Z,99641.81
2022-08-27T05:11:29.323Z,99645.34
2022-08-27T05:21:34.396Z,99658.72
2022-08-27T05:31:36.818Z,99657.84
2022-08-27T05:41:39.713Z,99651.50
2022-08-27T05:51:41.753Z,99642.22
2022-08-27T06:01:52.350Z,99646.28
2022-08-27T06:11:54.646Z,99642.78
2022-08-27T06:22:00.191Z,99652.50
2022-08-27T06:32:12.356Z,99665.78
2022-08-27T06:42:14.099Z,99666.38
2022-08-27T06:52:25.852Z,99683.66
2022-08-27T07:02:30.629Z,99687.59
2022-08-27T07:12:32.478Z,99690.88
2022-08-27T07:22:41.285Z,99695.63
2022-08-27T07:32:44.088Z,99695.16
2022-08-27T07:43:07.369Z,99713.50
2022-08-27T07:53:09.873Z,99702.59
2022-08-27T08:03:13.600Z,99704.91
2022-08-27T08:13:17.362Z,99694.41
2022-08-27T08:23:24.256Z,99703.03
2022-08-27T08:33:27.706Z,99713.91
2022-08-27T08:43:41.753Z,99712.03
2022-08-27T08:53:53.710Z,99716.78
2022-08-27T09:03:58.655Z,99708.69
2022-08-27T09:14:40.553Z,99701.88
2022-08-27T09:25:18.986Z,99690.75
2022-08-27T09:35:25.981Z,99682.13
2022-08-27T09:45:30.308Z,99679.19
2022-08-27T09:55:43.918Z,99678.97
2022-08-27T10:05:50.982Z,99681.47
2022-08-27T10:16:04.774Z,99677.66
2022-08-27T10:26:19.640Z,99674.59
2022-08-27T10:36:49.100Z,99683.59
2022-08-27T10:47:05.932Z,99679.63
2022-08-27T10:57:35.384Z,99663.44
2022-08-27T11:07:43.557Z,99654.97
2022-08-27T11:17:57.399Z,99663.00
2022-08-27T11:28:00.768Z,99662.22
2022-08-27T11:38:27.693Z,99654.69
2022-08-27T11:48:43.261Z,99648.59
2022-08-27T11:58:53.070Z,99640.47
2022-08-27T12:09:13.039Z,99628.28
2022-08-27T12:19:29.071Z,99628.25
2022-08-27T12:29:43.957Z,99612.28
2022-08-27T12:39:49.546Z,99608.63
2022-08-27T12:49:59.923Z,99580.59
2022-08-27T13:00:26.445Z,99588.69
2022-08-27T13:10:31.467Z,99582.94
2022-08-27T13:20:37.583Z,99582.31
2022-08-27T13:30:42.791Z,99587.41
2022-08-27T13:40:56.574Z,99591.47
2022-08-27T13:50:58.941Z,99581.25
2022-08-27T14:01:16.495Z,99580.34
2022-08-27T14:11:24.264Z,99568.22
2022-08-27T14:21:25.925Z,99567.56
2022-08-27T14:31:27.809Z,99567.53
2022-08-27T14:41:29.526Z,99566.94
2022-08-27T14:51:37.212Z,99565.88
2022-08-27T15:01:39.377Z,99562.97
2022-08-27T15:11:43.506Z,99567.47
2022-08-27T15:21:47.906Z,99576.88
2022-08-27T15:31:50.419Z,99577.44
2022-08-27T15:42:05.666Z,99571.16
2022-08-27T15:52:10.470Z,99570.84
2022-08-27T16:02:23.414Z,99568.75
2022-08-27T16:12:27.237Z,99564.97
2022-08-27T16:22:29.367Z,99575.44
2022-08-27T16:32:31.785Z,99590.13
2022-08-27T16:42:34.582Z,99573.00
2022-08-27T16:52:36.599Z,99578.41
2022-08-27T17:02:38.464Z,99574.44
2022-08-27T17:12:47.239Z,99589.22
2022-08-27T17:22:49.006Z,99602.41
2022-08-27T17:32:50.710Z,99621.34
2022-08-27T17:42:54.163Z,99648.56
2022-08-27T17:52:56.275Z,99644.16
2022-08-27T18:02:57.951Z,99651.84
2022-08-27T18:12:59.946Z,99661.31
2022-08-27T18:23:02.080Z,99658.34
2022-08-27T18:33:03.934Z,99672.91
2022-08-27T18:43:06.250Z,99672.56
2022-08-27T18:53:08.125Z,99678.81
2022-08-27T19:03:11.773Z,99683.44
2022-08-27T19:13:17.825Z,99686.81
2022-08-27T19:23:22.338Z,99673.53
2022-08-27T19:33:24.321Z,99667.06
2022-08-27T19:43:26.341Z,99650.72
2022-08-27T19:53:28.171Z,99668.03
2022-08-27T20:03:30.037Z,99672.34
2022-08-27T20:13:33.332Z,99700.25
2022-08-27T20:23:36.562Z,99691.19
2022-08-27T20:33:38.505Z,99693.72
2022-08-27T20:43:40.125Z,99677.47
2022-08-27T20:53:41.891Z,99691.31
2022-08-27T21:03:43.982Z,99712.84
2022-08-27T21:13:55.574Z,99708.19
2022-08-27T21:23:58.020Z,99708.81
2022-08-27T21:33:59.734Z,99716.00
2022-08-27T21:44:02.094Z,99724.28
2022-08-27T21:54:03.883Z,99724.31
2022-08-27T22:04:06.731Z,99727.91
2022-08-27T22:14:08.360Z,99722.31
2022-08-27T22:24:14.779Z,99706.59
2022-08-27T22:34:16.659Z,99715.22
2022-08-27T22:44:21.316Z,99707.63
2022-08-27T22:54:23.359Z,99700.00
2022-08-27T23:04:51.345Z,99707.16
2022-08-27T23:14:49.834Z,99728.59
2022-08-27T23:25:09.835Z,99711.00
2022-08-27T23:35:13.480Z,99713.72
2022-08-27T23:45:19.229Z,99719.75
2022-08-27T23:55:20.869Z,99779.47
